Pagrindinis puslapis
METAR-TAF:

METAR-TAF

Oro uostai :

Halmstadas, Švedija

platuma: 56-41N, ilguma: 012-50E, Aukštis: 30 m

Dabartinis oras

Ataskaita buvo paskelbta 9 minutes, ne 03:20 UTC
Vėjas 2 kt nuo kintamojo kryptimis
Temperatūra 13°C
Drėgmė 88%
Slėgis 1015 hPa
Matomumas: 7000 m

METAR: ESMT 250320Z AUTO VRB02KT 7000 OVC052/// 13/11 Q1015

Laikas: 05:29 (03:29 UTC)

Prognozė

Ataskaita buvo paskelbta 10 valandos ir 29 minutes, ne 17:00 UTC
Prognozė galioja nuo 24 metu 18 UTC su 24 metu 20 UTC
Vėjas 10 kt iš Vakarų/Šiaurės Vakarų
Matomumas 10 km arba daugiau
Išsisklaidę debesys ne aukštis 4500 ft

TAF: ESMT 241700Z 2418/2420 29010KT 9999 SCT045

Orai ataskaitas ir orų prognozės (METAR, TAF).

turimą stotys yra geltonos ir raudonos taškus žemėlapyje.

Perkelti pele per norėdami pamatyti stoties vardą.

Tada spustelėkite, norėdami matyti oro stebėjimo ir prognozės.

Norėdami pakeisti žemėlapį: spustelėkite ant žalios mygtukų su juodo kryžiaus žemyn,; žalią mygtuką su brūkšneliu, jei norite nutolinti; arba žalių rodyklių gretimoms žemėlapius.


METAR-TAF: